sensor_id;sensor_type;location;lat;lon;timestamp;P1;durP1;ratioP1;P2;durP2;ratioP2
44102;SDS011;29769;42.178;24.742;2023-02-01T00:01:08;5.22;;;3.05;;
44102;SDS011;29769;42.178;24.742;2023-02-01T00:03:53;3.38;;;3.05;;
44102;SDS011;29769;42.178;24.742;2023-02-01T00:06:38;4.43;;;2.80;;
44102;SDS011;29769;42.178;24.742;2023-02-01T00:09:23;4.50;;;3.40;;
44102;SDS011;29769;42.178;24.742;2023-02-01T00:12:08;5.75;;;3.58;;
44102;SDS011;29769;42.178;24.742;2023-02-01T00:14:53;3.03;;;2.45;;
44102;SDS011;29769;42.178;24.742;2023-02-01T00:17:38;3.63;;;2.83;;
44102;SDS011;29769;42.178;24.742;2023-02-01T00:20:23;6.50;;;3.00;;
44102;SDS011;29769;42.178;24.742;2023-02-01T00:23:08;4.40;;;2.95;;
44102;SDS011;29769;42.178;24.742;2023-02-01T00:25:54;3.83;;;3.08;;
44102;SDS011;29769;42.178;24.742;2023-02-01T00:28:38;3.58;;;2.90;;
44102;SDS011;29769;42.178;24.742;2023-02-01T00:31:23;3.55;;;2.85;;
44102;SDS011;29769;42.178;24.742;2023-02-01T00:36:56;4.60;;;3.33;;
44102;SDS011;29769;42.178;24.742;2023-02-01T00:39:41;5.05;;;2.67;;
44102;SDS011;29769;42.178;24.742;2023-02-01T00:42:27;3.40;;;2.42;;
44102;SDS011;29769;42.178;24.742;2023-02-01T00:45:11;3.92;;;2.72;;
44102;SDS011;29769;42.178;24.742;2023-02-01T00:47:56;5.82;;;2.58;;
44102;SDS011;29769;42.178;24.742;2023-02-01T00:50:42;4.53;;;3.17;;
44102;SDS011;29769;42.178;24.742;2023-02-01T00:53:27;4.55;;;3.30;;
44102;SDS011;29769;42.178;24.742;2023-02-01T00:56:13;3.92;;;2.88;;
44102;SDS011;29769;42.178;24.742;2023-02-01T00:58:58;3.85;;;2.90;;
44102;SDS011;29769;42.178;24.742;2023-02-01T01:01:43;3.22;;;2.75;;
44102;SDS011;29769;42.178;24.742;2023-02-01T01:04:28;5.00;;;2.95;;
44102;SDS011;29769;42.178;24.742;2023-02-01T01:07:13;4.45;;;3.00;;
44102;SDS011;29769;42.178;24.742;2023-02-01T01:09:57;5.88;;;3.70;;
44102;SDS011;29769;42.178;24.742;2023-02-01T01:12:43;5.53;;;3.83;;
44102;SDS011;29769;42.178;24.742;2023-02-01T01:15:28;3.20;;;2.92;;
44102;SDS011;29769;42.178;24.742;2023-02-01T01:18:13;3.60;;;2.92;;
44102;SDS011;29769;42.178;24.742;2023-02-01T01:20:58;4.70;;;3.10;;
44102;SDS011;29769;42.178;24.742;2023-02-01T01:23:44;10.10;;;3.03;;
44102;SDS011;29769;42.178;24.742;2023-02-01T01:26:29;3.35;;;2.67;;
44102;SDS011;29769;42.178;24.742;2023-02-01T01:31:59;5.50;;;3.05;;
44102;SDS011;29769;42.178;24.742;2023-02-01T01:34:44;5.35;;;3.13;;
44102;SDS011;29769;42.178;24.742;2023-02-01T01:37:29;5.05;;;3.17;;
44102;SDS011;29769;42.178;24.742;2023-02-01T01:40:14;5.38;;;3.05;;
44102;SDS011;29769;42.178;24.742;2023-02-01T01:42:59;6.00;;;3.05;;
44102;SDS011;29769;42.178;24.742;2023-02-01T01:45:46;4.72;;;3.38;;
44102;SDS011;29769;42.178;24.742;2023-02-01T01:48:31;4.00;;;3.10;;
44102;SDS011;29769;42.178;24.742;2023-02-01T01:51:17;4.55;;;3.63;;
44102;SDS011;29769;42.178;24.742;2023-02-01T01:54:12;4.30;;;3.70;;
44102;SDS011;29769;42.178;24.742;2023-02-01T01:57:02;5.35;;;3.60;;
44102;SDS011;29769;42.178;24.742;2023-02-01T01:59:59;5.45;;;3.45;;
44102;SDS011;29769;42.178;24.742;2023-02-01T02:03:10;5.80;;;3.53;;
44102;SDS011;29769;42.178;24.742;2023-02-01T02:05:57;8.25;;;3.90;;
44102;SDS011;29769;42.178;24.742;2023-02-01T02:08:44;3.85;;;3.30;;
44102;SDS011;29769;42.178;24.742;2023-02-01T02:11:29;4.53;;;3.30;;
44102;SDS011;29769;42.178;24.742;2023-02-01T02:14:14;3.85;;;3.45;;
44102;SDS011;29769;42.178;24.742;2023-02-01T02:26:44;3.92;;;3.15;;
44102;SDS011;29769;42.178;24.742;2023-02-01T02:29:57;3.53;;;3.05;;
44102;SDS011;29769;42.178;24.742;2023-02-01T02:36:01;3.17;;;2.78;;
44102;SDS011;29769;42.178;24.742;2023-02-01T02:39:03;2.90;;;2.70;;
44102;SDS011;29769;42.178;24.742;2023-02-01T02:45:23;3.47;;;2.40;;
44102;SDS011;29769;42.178;24.742;2023-02-01T02:48:46;2.90;;;2.60;;
44102;SDS011;29769;42.178;24.742;2023-02-01T02:55:06;3.60;;;2.75;;
44102;SDS011;29769;42.178;24.742;2023-02-01T02:57:54;3.75;;;2.90;;
44102;SDS011;29769;42.178;24.742;2023-02-01T03:01:00;3.35;;;2.97;;
44102;SDS011;29769;42.178;24.742;2023-02-01T03:04:05;6.07;;;3.20;;
44102;SDS011;29769;42.178;24.742;2023-02-01T03:06:55;4.45;;;2.95;;
44102;SDS011;29769;42.178;24.742;2023-02-01T03:09:40;4.03;;;3.00;;
44102;SDS011;29769;42.178;24.742;2023-02-01T03:12:29;5.80;;;3.05;;
44102;SDS011;29769;42.178;24.742;2023-02-01T03:16:01;5.05;;;2.92;;
44102;SDS011;29769;42.178;24.742;2023-02-01T03:22:14;7.95;;;3.58;;
44102;SDS011;29769;42.178;24.742;2023-02-01T03:25:05;4.95;;;3.40;;
44102;SDS011;29769;42.178;24.742;2023-02-01T03:28:02;4.60;;;3.53;;
44102;SDS011;29769;42.178;24.742;2023-02-01T03:33:38;4.30;;;3.50;;
44102;SDS011;29769;42.178;24.742;2023-02-01T03:36:29;6.47;;;3.58;;
44102;SDS011;29769;42.178;24.742;2023-02-01T03:39:20;4.65;;;3.78;;
44102;SDS011;29769;42.178;24.742;2023-02-01T03:42:17;4.88;;;3.85;;
44102;SDS011;29769;42.178;24.742;2023-02-01T03:45:26;9.25;;;4.03;;
44102;SDS011;29769;42.178;24.742;2023-02-01T03:48:16;4.90;;;4.20;;
44102;SDS011;29769;42.178;24.742;2023-02-01T03:51:03;5.20;;;4.40;;
44102;SDS011;29769;42.178;24.742;2023-02-01T03:53:51;5.07;;;3.83;;
44102;SDS011;29769;42.178;24.742;2023-02-01T03:56:39;4.85;;;4.18;;
44102;SDS011;29769;42.178;24.742;2023-02-01T03:59:29;4.80;;;4.10;;
44102;SDS011;29769;42.178;24.742;2023-02-01T04:02:15;6.22;;;5.15;;
44102;SDS011;29769;42.178;24.742;2023-02-01T04:05:01;8.32;;;5.68;;
44102;SDS011;29769;42.178;24.742;2023-02-01T04:07:46;7.78;;;4.57;;
44102;SDS011;29769;42.178;24.742;2023-02-01T04:10:31;5.13;;;4.43;;
44102;SDS011;29769;42.178;24.742;2023-02-01T04:13:16;5.85;;;4.53;;
44102;SDS011;29769;42.178;24.742;2023-02-01T04:16:01;6.30;;;4.75;;
44102;SDS011;29769;42.178;24.742;2023-02-01T04:18:46;6.38;;;4.50;;
44102;SDS011;29769;42.178;24.742;2023-02-01T04:21:31;7.03;;;4.90;;
44102;SDS011;29769;42.178;24.742;2023-02-01T04:24:15;6.40;;;5.03;;
44102;SDS011;29769;42.178;24.742;2023-02-01T04:27:00;6.65;;;4.82;;
44102;SDS011;29769;42.178;24.742;2023-02-01T04:29:47;6.68;;;4.20;;
44102;SDS011;29769;42.178;24.742;2023-02-01T04:32:34;6.45;;;3.90;;
44102;SDS011;29769;42.178;24.742;2023-02-01T04:35:18;5.63;;;4.07;;
44102;SDS011;29769;42.178;24.742;2023-02-01T04:38:03;5.85;;;4.70;;
44102;SDS011;29769;42.178;24.742;2023-02-01T04:40:48;5.68;;;4.20;;
44102;SDS011;29769;42.178;24.742;2023-02-01T04:43:33;7.78;;;4.97;;
44102;SDS011;29769;42.178;24.742;2023-02-01T04:46:18;5.97;;;4.63;;
44102;SDS011;29769;42.178;24.742;2023-02-01T04:49:03;6.80;;;4.70;;
44102;SDS011;29769;42.178;24.742;2023-02-01T04:51:48;7.25;;;4.30;;
44102;SDS011;29769;42.178;24.742;2023-02-01T04:54:33;4.95;;;4.45;;
44102;SDS011;29769;42.178;24.742;2023-02-01T04:57:17;8.75;;;4.85;;
44102;SDS011;29769;42.178;24.742;2023-02-01T05:00:02;7.28;;;4.95;;
44102;SDS011;29769;42.178;24.742;2023-02-01T05:02:48;11.05;;;5.70;;
44102;SDS011;29769;42.178;24.742;2023-02-01T05:05:33;7.40;;;4.35;;
44102;SDS011;29769;42.178;24.742;2023-02-01T05:08:17;6.47;;;4.13;;
44102;SDS011;29769;42.178;24.742;2023-02-01T05:11:02;5.50;;;4.18;;
44102;SDS011;29769;42.178;24.742;2023-02-01T05:13:47;5.45;;;4.05;;
44102;SDS011;29769;42.178;24.742;2023-02-01T05:16:32;4.95;;;3.95;;
44102;SDS011;29769;42.178;24.742;2023-02-01T05:19:17;5.60;;;3.92;;
44102;SDS011;29769;42.178;24.742;2023-02-01T05:22:02;6.45;;;3.70;;
44102;SDS011;29769;42.178;24.742;2023-02-01T05:24:47;6.47;;;3.90;;
44102;SDS011;29769;42.178;24.742;2023-02-01T05:27:32;4.43;;;3.85;;
44102;SDS011;29769;42.178;24.742;2023-02-01T05:30:16;5.60;;;3.65;;
44102;SDS011;29769;42.178;24.742;2023-02-01T05:33:02;3.95;;;3.55;;
44102;SDS011;29769;42.178;24.742;2023-02-01T05:35:47;6.85;;;3.40;;
44102;SDS011;29769;42.178;24.742;2023-02-01T05:38:32;11.30;;;3.50;;
44102;SDS011;29769;42.178;24.742;2023-02-01T05:41:16;7.60;;;3.10;;
44102;SDS011;29769;42.178;24.742;2023-02-01T05:44:01;10.52;;;2.75;;
44102;SDS011;29769;42.178;24.742;2023-02-01T05:46:47;5.80;;;3.13;;
44102;SDS011;29769;42.178;24.742;2023-02-01T05:49:32;4.57;;;3.35;;
44102;SDS011;29769;42.178;24.742;2023-02-01T05:55:04;7.55;;;2.88;;
44102;SDS011;29769;42.178;24.742;2023-02-01T05:57:50;6.10;;;3.47;;
44102;SDS011;29769;42.178;24.742;2023-02-01T06:00:34;13.15;;;3.38;;
44102;SDS011;29769;42.178;24.742;2023-02-01T06:03:19;5.38;;;2.85;;
44102;SDS011;29769;42.178;24.742;2023-02-01T06:06:04;3.22;;;3.03;;
44102;SDS011;29769;42.178;24.742;2023-02-01T06:08:49;3.50;;;2.72;;
44102;SDS011;29769;42.178;24.742;2023-02-01T06:11:34;8.82;;;3.28;;
44102;SDS011;29769;42.178;24.742;2023-02-01T06:14:19;3.65;;;3.15;;
44102;SDS011;29769;42.178;24.742;2023-02-01T06:17:04;5.97;;;3.08;;
44102;SDS011;29769;42.178;24.742;2023-02-01T06:19:50;4.65;;;3.28;;
44102;SDS011;29769;42.178;24.742;2023-02-01T06:22:35;7.20;;;3.17;;
44102;SDS011;29769;42.178;24.742;2023-02-01T06:25:20;5.35;;;2.90;;
44102;SDS011;29769;42.178;24.742;2023-02-01T06:28:05;5.85;;;3.45;;
44102;SDS011;29769;42.178;24.742;2023-02-01T06:30:50;4.60;;;3.20;;
44102;SDS011;29769;42.178;24.742;2023-02-01T06:36:20;4.15;;;3.22;;
44102;SDS011;29769;42.178;24.742;2023-02-01T06:39:05;9.05;;;4.00;;
44102;SDS011;29769;42.178;24.742;2023-02-01T06:41:50;5.45;;;3.55;;
44102;SDS011;29769;42.178;24.742;2023-02-01T06:44:35;5.38;;;3.30;;
44102;SDS011;29769;42.178;24.742;2023-02-01T06:47:20;7.82;;;5.30;;
44102;SDS011;29769;42.178;24.742;2023-02-01T06:50:05;10.15;;;4.78;;
44102;SDS011;29769;42.178;24.742;2023-02-01T06:52:50;8.20;;;4.05;;
44102;SDS011;29769;42.178;24.742;2023-02-01T06:55:35;12.55;;;3.20;;
44102;SDS011;29769;42.178;24.742;2023-02-01T06:58:20;5.60;;;2.65;;
44102;SDS011;29769;42.178;24.742;2023-02-01T07:01:05;5.00;;;3.08;;
44102;SDS011;29769;42.178;24.742;2023-02-01T07:03:52;5.88;;;3.40;;
44102;SDS011;29769;42.178;24.742;2023-02-01T07:06:37;5.70;;;3.53;;
44102;SDS011;29769;42.178;24.742;2023-02-01T07:09:22;10.07;;;4.28;;
44102;SDS011;29769;42.178;24.742;2023-02-01T07:12:08;5.65;;;3.40;;
44102;SDS011;29769;42.178;24.742;2023-02-01T07:14:52;8.43;;;3.63;;
44102;SDS011;29769;42.178;24.742;2023-02-01T07:17:37;7.20;;;3.67;;
44102;SDS011;29769;42.178;24.742;2023-02-01T07:20:22;8.77;;;3.33;;
44102;SDS011;29769;42.178;24.742;2023-02-01T07:23:11;4.72;;;3.22;;
44102;SDS011;29769;42.178;24.742;2023-02-01T07:25:56;6.35;;;3.97;;
44102;SDS011;29769;42.178;24.742;2023-02-01T07:28:43;12.13;;;5.60;;
44102;SDS011;29769;42.178;24.742;2023-02-01T07:31:28;6.55;;;3.20;;
44102;SDS011;29769;42.178;24.742;2023-02-01T07:36:58;5.35;;;2.88;;
44102;SDS011;29769;42.178;24.742;2023-02-01T07:39:42;4.28;;;2.60;;
44102;SDS011;29769;42.178;24.742;2023-02-01T07:42:27;3.33;;;2.05;;
44102;SDS011;29769;42.178;24.742;2023-02-01T07:45:11;3.80;;;2.20;;
44102;SDS011;29769;42.178;24.742;2023-02-01T07:47:58;2.15;;;1.95;;
44102;SDS011;29769;42.178;24.742;2023-02-01T07:50:43;2.25;;;1.92;;
44102;SDS011;29769;42.178;24.742;2023-02-01T07:53:28;6.35;;;2.70;;
44102;SDS011;29769;42.178;24.742;2023-02-01T07:56:15;4.95;;;2.72;;
44102;SDS011;29769;42.178;24.742;2023-02-01T07:59:01;4.40;;;2.17;;
44102;SDS011;29769;42.178;24.742;2023-02-01T08:01:46;5.55;;;2.92;;
44102;SDS011;29769;42.178;24.742;2023-02-01T08:04:31;6.63;;;2.53;;
44102;SDS011;29769;42.178;24.742;2023-02-01T08:07:16;5.38;;;3.08;;
44102;SDS011;29769;42.178;24.742;2023-02-01T08:10:01;8.88;;;3.33;;
44102;SDS011;29769;42.178;24.742;2023-02-01T08:12:46;5.40;;;2.78;;
44102;SDS011;29769;42.178;24.742;2023-02-01T08:15:35;6.30;;;3.00;;
44102;SDS011;29769;42.178;24.742;2023-02-01T08:18:20;14.93;;;2.80;;
44102;SDS011;29769;42.178;24.742;2023-02-01T08:21:06;8.68;;;3.42;;
44102;SDS011;29769;42.178;24.742;2023-02-01T08:23:55;6.40;;;2.97;;
44102;SDS011;29769;42.178;24.742;2023-02-01T08:26:40;5.57;;;2.65;;
44102;SDS011;29769;42.178;24.742;2023-02-01T08:29:25;5.90;;;3.58;;
44102;SDS011;29769;42.178;24.742;2023-02-01T08:34:54;9.52;;;3.38;;
44102;SDS011;29769;42.178;24.742;2023-02-01T08:37:39;8.18;;;3.25;;
44102;SDS011;29769;42.178;24.742;2023-02-01T08:40:24;8.27;;;3.42;;
44102;SDS011;29769;42.178;24.742;2023-02-01T08:43:09;6.80;;;3.65;;
44102;SDS011;29769;42.178;24.742;2023-02-01T08:45:54;8.27;;;4.00;;
44102;SDS011;29769;42.178;24.742;2023-02-01T08:48:40;4.80;;;3.55;;
44102;SDS011;29769;42.178;24.742;2023-02-01T08:51:25;6.05;;;3.90;;
44102;SDS011;29769;42.178;24.742;2023-02-01T08:54:10;8.63;;;3.75;;
44102;SDS011;29769;42.178;24.742;2023-02-01T08:59:40;8.25;;;3.55;;
44102;SDS011;29769;42.178;24.742;2023-02-01T09:02:25;10.45;;;4.32;;
44102;SDS011;29769;42.178;24.742;2023-02-01T09:07:55;3.92;;;2.97;;
44102;SDS011;29769;42.178;24.742;2023-02-01T09:10:41;4.72;;;3.50;;
44102;SDS011;29769;42.178;24.742;2023-02-01T09:13:26;8.35;;;3.53;;
44102;SDS011;29769;42.178;24.742;2023-02-01T09:16:11;10.50;;;3.28;;
44102;SDS011;29769;42.178;24.742;2023-02-01T09:18:56;3.50;;;2.45;;
44102;SDS011;29769;42.178;24.742;2023-02-01T09:21:41;5.22;;;2.65;;
44102;SDS011;29769;42.178;24.742;2023-02-01T09:24:26;4.18;;;2.70;;
44102;SDS011;29769;42.178;24.742;2023-02-01T09:27:12;7.97;;;2.80;;
44102;SDS011;29769;42.178;24.742;2023-02-01T09:29:57;5.35;;;2.53;;
44102;SDS011;29769;42.178;24.742;2023-02-01T09:32:42;5.30;;;2.50;;
44102;SDS011;29769;42.178;24.742;2023-02-01T09:35:26;4.88;;;2.13;;
44102;SDS011;29769;42.178;24.742;2023-02-01T09:38:11;2.72;;;2.35;;
44102;SDS011;29769;42.178;24.742;2023-02-01T09:43:46;4.80;;;2.17;;
44102;SDS011;29769;42.178;24.742;2023-02-01T09:46:40;1.90;;;1.65;;
44102;SDS011;29769;42.178;24.742;2023-02-01T09:49:31;5.60;;;1.85;;
44102;SDS011;29769;42.178;24.742;2023-02-01T09:52:23;2.60;;;1.90;;
44102;SDS011;29769;42.178;24.742;2023-02-01T09:55:18;2.97;;;1.95;;
44102;SDS011;29769;42.178;24.742;2023-02-01T09:58:09;4.80;;;2.22;;
44102;SDS011;29769;42.178;24.742;2023-02-01T10:00:57;5.50;;;1.67;;
44102;SDS011;29769;42.178;24.742;2023-02-01T10:03:43;2.83;;;1.85;;
44102;SDS011;29769;42.178;24.742;2023-02-01T10:27:19;4.35;;;1.95;;
44102;SDS011;29769;42.178;24.742;2023-02-01T10:30:14;2.97;;;1.80;;
44102;SDS011;29769;42.178;24.742;2023-02-01T10:33:26;1.52;;;1.40;;
44102;SDS011;29769;42.178;24.742;2023-02-01T10:36:14;2.75;;;2.00;;
44102;SDS011;29769;42.178;24.742;2023-02-01T10:39:03;2.63;;;1.58;;
44102;SDS011;29769;42.178;24.742;2023-02-01T10:41:52;6.20;;;1.95;;
44102;SDS011;29769;42.178;24.742;2023-02-01T10:44:40;3.63;;;1.50;;
44102;SDS011;29769;42.178;24.742;2023-02-01T10:47:29;3.55;;;2.05;;
44102;SDS011;29769;42.178;24.742;2023-02-01T10:53:44;4.10;;;2.17;;
44102;SDS011;29769;42.178;24.742;2023-02-01T10:56:34;3.38;;;1.92;;
44102;SDS011;29769;42.178;24.742;2023-02-01T10:59:25;2.65;;;1.95;;
44102;SDS011;29769;42.178;24.742;2023-02-01T11:02:20;2.22;;;1.70;;
44102;SDS011;29769;42.178;24.742;2023-02-01T11:05:09;2.60;;;1.40;;
44102;SDS011;29769;42.178;24.742;2023-02-01T11:07:56;2.05;;;1.38;;
44102;SDS011;29769;42.178;24.742;2023-02-01T11:10:44;2.53;;;1.63;;
44102;SDS011;29769;42.178;24.742;2023-02-01T11:13:30;3.63;;;1.67;;
44102;SDS011;29769;42.178;24.742;2023-02-01T11:16:17;3.10;;;1.90;;
44102;SDS011;29769;42.178;24.742;2023-02-01T11:19:03;2.80;;;1.80;;
44102;SDS011;29769;42.178;24.742;2023-02-01T11:21:51;5.80;;;1.75;;
44102;SDS011;29769;42.178;24.742;2023-02-01T11:24:39;2.20;;;1.60;;
44102;SDS011;29769;42.178;24.742;2023-02-01T11:27:28;2.50;;;1.45;;
44102;SDS011;29769;42.178;24.742;2023-02-01T11:30:14;2.67;;;1.63;;
44102;SDS011;29769;42.178;24.742;2023-02-01T11:33:18;4.68;;;1.73;;
44102;SDS011;29769;42.178;24.742;2023-02-01T11:36:13;2.72;;;1.63;;
44102;SDS011;29769;42.178;24.742;2023-02-01T11:42:16;6.35;;;1.90;;
44102;SDS011;29769;42.178;24.742;2023-02-01T11:45:19;1.77;;;1.33;;
44102;SDS011;29769;42.178;24.742;2023-02-01T11:48:15;1.33;;;1.20;;
44102;SDS011;29769;42.178;24.742;2023-02-01T12:18:10;2.50;;;1.45;;
44102;SDS011;29769;42.178;24.742;2023-02-01T12:21:37;3.97;;;1.70;;
44102;SDS011;29769;42.178;24.742;2023-02-01T12:24:52;2.28;;;1.48;;
44102;SDS011;29769;42.178;24.742;2023-02-01T12:28:07;3.63;;;1.80;;
44102;SDS011;29769;42.178;24.742;2023-02-01T12:31:26;2.55;;;1.48;;
44102;SDS011;29769;42.178;24.742;2023-02-01T12:37:39;3.95;;;1.50;;
44102;SDS011;29769;42.178;24.742;2023-02-01T12:44:35;2.97;;;1.50;;
44102;SDS011;29769;42.178;24.742;2023-02-01T12:47:31;4.82;;;1.63;;
44102;SDS011;29769;42.178;24.742;2023-02-01T12:50:28;2.70;;;1.35;;
44102;SDS011;29769;42.178;24.742;2023-02-01T12:53:28;2.75;;;1.35;;
44102;SDS011;29769;42.178;24.742;2023-02-01T12:56:25;2.78;;;1.80;;
44102;SDS011;29769;42.178;24.742;2023-02-01T13:02:35;2.33;;;1.75;;
44102;SDS011;29769;42.178;24.742;2023-02-01T13:05:22;3.75;;;1.40;;
44102;SDS011;29769;42.178;24.742;2023-02-01T13:08:14;3.58;;;1.90;;
44102;SDS011;29769;42.178;24.742;2023-02-01T13:11:11;3.40;;;1.73;;
44102;SDS011;29769;42.178;24.742;2023-02-01T13:17:00;3.58;;;1.70;;
44102;SDS011;29769;42.178;24.742;2023-02-01T13:19:56;3.63;;;1.70;;
44102;SDS011;29769;42.178;24.742;2023-02-01T13:23:10;2.10;;;1.50;;
44102;SDS011;29769;42.178;24.742;2023-02-01T13:26:12;4.80;;;2.20;;
44102;SDS011;29769;42.178;24.742;2023-02-01T13:28:58;5.00;;;1.85;;
44102;SDS011;29769;42.178;24.742;2023-02-01T13:34:59;4.55;;;1.80;;
44102;SDS011;29769;42.178;24.742;2023-02-01T13:44:17;2.35;;;1.48;;
44102;SDS011;29769;42.178;24.742;2023-02-01T13:47:32;2.03;;;1.40;;
44102;SDS011;29769;42.178;24.742;2023-02-01T13:55:59;1.92;;;1.20;;
44102;SDS011;29769;42.178;24.742;2023-02-01T13:58:46;1.48;;;1.38;;
44102;SDS011;29769;42.178;24.742;2023-02-01T14:01:32;1.65;;;1.20;;
44102;SDS011;29769;42.178;24.742;2023-02-01T14:07:30;3.53;;;1.38;;
44102;SDS011;29769;42.178;24.742;2023-02-01T14:13:36;5.25;;;1.40;;
44102;SDS011;29769;42.178;24.742;2023-02-01T14:16:25;3.33;;;1.45;;
44102;SDS011;29769;42.178;24.742;2023-02-01T14:25:14;1.63;;;1.08;;
44102;SDS011;29769;42.178;24.742;2023-02-01T14:28:01;1.77;;;1.30;;
44102;SDS011;29769;42.178;24.742;2023-02-01T14:30:56;4.70;;;1.40;;
44102;SDS011;29769;42.178;24.742;2023-02-01T14:33:43;4.57;;;1.92;;
44102;SDS011;29769;42.178;24.742;2023-02-01T14:36:38;4.28;;;2.15;;
44102;SDS011;29769;42.178;24.742;2023-02-01T14:42:26;3.78;;;1.60;;
44102;SDS011;29769;42.178;24.742;2023-02-01T14:45:46;1.45;;;1.15;;
44102;SDS011;29769;42.178;24.742;2023-02-01T14:51:19;2.53;;;1.20;;
44102;SDS011;29769;42.178;24.742;2023-02-01T14:54:06;1.75;;;1.40;;
44102;SDS011;29769;42.178;24.742;2023-02-01T14:56:56;1.23;;;0.90;;
44102;SDS011;29769;42.178;24.742;2023-02-01T14:59:42;2.03;;;1.38;;
44102;SDS011;29769;42.178;24.742;2023-02-01T15:02:30;1.80;;;1.45;;
44102;SDS011;29769;42.178;24.742;2023-02-01T15:05:27;2.00;;;1.02;;
44102;SDS011;29769;42.178;24.742;2023-02-01T15:08:18;2.67;;;1.17;;
44102;SDS011;29769;42.178;24.742;2023-02-01T15:11:07;1.65;;;1.23;;
44102;SDS011;29769;42.178;24.742;2023-02-01T15:13:58;3.50;;;1.50;;
44102;SDS011;29769;42.178;24.742;2023-02-01T15:16:45;2.05;;;1.38;;
44102;SDS011;29769;42.178;24.742;2023-02-01T15:19:34;1.40;;;1.17;;
44102;SDS011;29769;42.178;24.742;2023-02-01T15:22:20;2.17;;;1.05;;
44102;SDS011;29769;42.178;24.742;2023-02-01T15:25:05;3.92;;;1.75;;
44102;SDS011;29769;42.178;24.742;2023-02-01T15:27:50;2.90;;;1.45;;
44102;SDS011;29769;42.178;24.742;2023-02-01T15:30:35;3.05;;;1.65;;
44102;SDS011;29769;42.178;24.742;2023-02-01T15:41:59;9.85;;;2.40;;
44102;SDS011;29769;42.178;24.742;2023-02-01T15:44:53;9.48;;;2.10;;
44102;SDS011;29769;42.178;24.742;2023-02-01T15:47:38;7.80;;;2.17;;
44102;SDS011;29769;42.178;24.742;2023-02-01T15:50:26;2.22;;;1.73;;
44102;SDS011;29769;42.178;24.742;2023-02-01T15:53:18;3.40;;;1.98;;
44102;SDS011;29769;42.178;24.742;2023-02-01T15:56:05;3.90;;;1.70;;
44102;SDS011;29769;42.178;24.742;2023-02-01T16:01:37;5.28;;;2.10;;
44102;SDS011;29769;42.178;24.742;2023-02-01T16:07:21;6.18;;;2.13;;
44102;SDS011;29769;42.178;24.742;2023-02-01T16:10:47;5.80;;;2.85;;
44102;SDS011;29769;42.178;24.742;2023-02-01T16:13:26;8.57;;;3.47;;
44102;SDS011;29769;42.178;24.742;2023-02-01T16:16:12;5.03;;;3.05;;
44102;SDS011;29769;42.178;24.742;2023-02-01T16:21:42;9.07;;;2.70;;
44102;SDS011;29769;42.178;24.742;2023-02-01T16:24:27;6.70;;;2.92;;
44102;SDS011;29769;42.178;24.742;2023-02-01T16:27:11;3.70;;;2.22;;
44102;SDS011;29769;42.178;24.742;2023-02-01T16:29:56;5.07;;;2.53;;
44102;SDS011;29769;42.178;24.742;2023-02-01T16:32:41;2.58;;;1.90;;
44102;SDS011;29769;42.178;24.742;2023-02-01T16:38:12;3.72;;;2.30;;
44102;SDS011;29769;42.178;24.742;2023-02-01T16:40:59;3.67;;;2.10;;
44102;SDS011;29769;42.178;24.742;2023-02-01T16:43:48;4.18;;;2.25;;
44102;SDS011;29769;42.178;24.742;2023-02-01T16:46:35;5.60;;;2.83;;
44102;SDS011;29769;42.178;24.742;2023-02-01T16:49:24;6.30;;;2.65;;
44102;SDS011;29769;42.178;24.742;2023-02-01T16:52:14;5.50;;;2.78;;
44102;SDS011;29769;42.178;24.742;2023-02-01T16:55:04;3.10;;;2.42;;
44102;SDS011;29769;42.178;24.742;2023-02-01T16:57:56;3.80;;;2.50;;
44102;SDS011;29769;42.178;24.742;2023-02-01T17:00:41;5.18;;;2.60;;
44102;SDS011;29769;42.178;24.742;2023-02-01T17:03:26;10.45;;;3.33;;
44102;SDS011;29769;42.178;24.742;2023-02-01T17:06:12;4.57;;;3.15;;
44102;SDS011;29769;42.178;24.742;2023-02-01T17:08:59;5.72;;;3.40;;
44102;SDS011;29769;42.178;24.742;2023-02-01T17:11:46;6.75;;;3.22;;
44102;SDS011;29769;42.178;24.742;2023-02-01T17:14:32;12.73;;;3.38;;
44102;SDS011;29769;42.178;24.742;2023-02-01T17:17:20;4.80;;;2.78;;
44102;SDS011;29769;42.178;24.742;2023-02-01T17:20:06;7.38;;;2.80;;
44102;SDS011;29769;42.178;24.742;2023-02-01T17:22:51;6.60;;;2.88;;
44102;SDS011;29769;42.178;24.742;2023-02-01T17:25:36;4.05;;;2.72;;
44102;SDS011;29769;42.178;24.742;2023-02-01T17:28:21;5.13;;;3.03;;
44102;SDS011;29769;42.178;24.742;2023-02-01T17:31:07;8.15;;;3.20;;
44102;SDS011;29769;42.178;24.742;2023-02-01T17:33:56;6.40;;;3.22;;
44102;SDS011;29769;42.178;24.742;2023-02-01T17:36:41;7.70;;;3.08;;
44102;SDS011;29769;42.178;24.742;2023-02-01T17:39:27;9.65;;;4.10;;
44102;SDS011;29769;42.178;24.742;2023-02-01T17:42:30;5.03;;;3.25;;
44102;SDS011;29769;42.178;24.742;2023-02-01T17:48:12;4.10;;;2.65;;
44102;SDS011;29769;42.178;24.742;2023-02-01T17:50:57;6.72;;;2.92;;
44102;SDS011;29769;42.178;24.742;2023-02-01T17:53:42;7.30;;;2.90;;
44102;SDS011;29769;42.178;24.742;2023-02-01T17:56:27;5.72;;;3.25;;
44102;SDS011;29769;42.178;24.742;2023-02-01T17:59:12;4.40;;;2.88;;
44102;SDS011;29769;42.178;24.742;2023-02-01T18:01:58;7.78;;;2.75;;
44102;SDS011;29769;42.178;24.742;2023-02-01T18:04:44;5.60;;;3.63;;
44102;SDS011;29769;42.178;24.742;2023-02-01T18:07:29;9.68;;;3.35;;
44102;SDS011;29769;42.178;24.742;2023-02-01T18:10:14;10.00;;;3.88;;
44102;SDS011;29769;42.178;24.742;2023-02-01T18:13:00;10.00;;;3.40;;
44102;SDS011;29769;42.178;24.742;2023-02-01T18:15:45;4.07;;;2.78;;
44102;SDS011;29769;42.178;24.742;2023-02-01T18:18:30;5.53;;;3.40;;
44102;SDS011;29769;42.178;24.742;2023-02-01T18:21:18;6.75;;;3.08;;
44102;SDS011;29769;42.178;24.742;2023-02-01T18:24:04;7.22;;;2.90;;
44102;SDS011;29769;42.178;24.742;2023-02-01T18:26:49;5.10;;;2.58;;
44102;SDS011;29769;42.178;24.742;2023-02-01T18:29:35;4.68;;;2.67;;
44102;SDS011;29769;42.178;24.742;2023-02-01T18:32:20;3.90;;;2.55;;
44102;SDS011;29769;42.178;24.742;2023-02-01T18:35:38;3.78;;;2.42;;
44102;SDS011;29769;42.178;24.742;2023-02-01T18:38:16;3.58;;;1.98;;
44102;SDS011;29769;42.178;24.742;2023-02-01T18:41:02;3.72;;;2.50;;
44102;SDS011;29769;42.178;24.742;2023-02-01T18:43:49;4.97;;;2.13;;
44102;SDS011;29769;42.178;24.742;2023-02-01T18:46:35;4.50;;;3.05;;
44102;SDS011;29769;42.178;24.742;2023-02-01T18:49:20;5.80;;;3.00;;
44102;SDS011;29769;42.178;24.742;2023-02-01T18:52:05;4.60;;;2.97;;
44102;SDS011;29769;42.178;24.742;2023-02-01T18:54:50;4.63;;;3.03;;
44102;SDS011;29769;42.178;24.742;2023-02-01T18:57:35;7.00;;;3.00;;
44102;SDS011;29769;42.178;24.742;2023-02-01T19:00:21;6.05;;;3.25;;
44102;SDS011;29769;42.178;24.742;2023-02-01T19:03:06;5.05;;;2.92;;
44102;SDS011;29769;42.178;24.742;2023-02-01T19:05:53;5.38;;;2.80;;
44102;SDS011;29769;42.178;24.742;2023-02-01T19:08:39;6.63;;;3.22;;
44102;SDS011;29769;42.178;24.742;2023-02-01T19:11:24;7.88;;;3.60;;
44102;SDS011;29769;42.178;24.742;2023-02-01T19:14:09;8.00;;;3.25;;
44102;SDS011;29769;42.178;24.742;2023-02-01T19:16:54;5.80;;;3.60;;
44102;SDS011;29769;42.178;24.742;2023-02-01T19:19:41;6.13;;;3.40;;
44102;SDS011;29769;42.178;24.742;2023-02-01T19:22:27;6.05;;;3.00;;
44102;SDS011;29769;42.178;24.742;2023-02-01T19:25:16;7.75;;;3.35;;
44102;SDS011;29769;42.178;24.742;2023-02-01T19:28:06;6.35;;;3.22;;
44102;SDS011;29769;42.178;24.742;2023-02-01T19:31:00;10.45;;;3.63;;
44102;SDS011;29769;42.178;24.742;2023-02-01T19:33:46;5.28;;;3.47;;